sensor_id;sensor_type;location;lat;lon;timestamp;pressure;altitude;pressure_sealevel;temperature;humidity
72038;BME280;59900;50.788;12.904;2023-02-23T00:01:20;97167.13;;;9.05;77.02
72038;BME280;59900;50.788;12.904;2023-02-23T00:03:46;97163.69;;;9.05;77.07
72038;BME280;59900;50.788;12.904;2023-02-23T00:06:14;97162.91;;;9.04;77.05
72038;BME280;59900;50.788;12.904;2023-02-23T00:08:39;97159.47;;;9.04;77.07
72038;BME280;59900;50.788;12.904;2023-02-23T00:11:07;97159.66;;;9.02;77.08
72038;BME280;59900;50.788;12.904;2023-02-23T00:13:34;97159.22;;;8.98;77.13
72038;BME280;59900;50.788;12.904;2023-02-23T00:16:10;97164.47;;;8.98;77.27
72038;BME280;59900;50.788;12.904;2023-02-23T00:18:54;97165.50;;;8.97;77.34
72038;BME280;59900;50.788;12.904;2023-02-23T00:21:23;97161.84;;;8.98;77.55
72038;BME280;59900;50.788;12.904;2023-02-23T00:26:14;97164.69;;;8.97;77.62
72038;BME280;59900;50.788;12.904;2023-02-23T00:28:41;97161.25;;;8.96;77.69
72038;BME280;59900;50.788;12.904;2023-02-23T00:31:08;97159.88;;;9.00;77.29
72038;BME280;59900;50.788;12.904;2023-02-23T00:33:33;97150.19;;;9.01;77.28
72038;BME280;59900;50.788;12.904;2023-02-23T00:36:10;97148.97;;;8.97;77.56
72038;BME280;59900;50.788;12.904;2023-02-23T00:38:37;97149.38;;;9.00;77.58
72038;BME280;59900;50.788;12.904;2023-02-23T00:41:14;97150.19;;;9.01;77.43
72038;BME280;59900;50.788;12.904;2023-02-23T00:43:59;97145.75;;;9.01;77.50
72038;BME280;59900;50.788;12.904;2023-02-23T00:46:28;97142.34;;;9.08;77.37
72038;BME280;59900;50.788;12.904;2023-02-23T00:48:55;97145.59;;;9.10;77.24
72038;BME280;59900;50.788;12.904;2023-02-23T00:51:22;97152.44;;;9.11;77.23
72038;BME280;59900;50.788;12.904;2023-02-23T00:53:52;97155.06;;;9.11;77.30
72038;BME280;59900;50.788;12.904;2023-02-23T00:56:18;97147.81;;;9.13;76.91
72038;BME280;59900;50.788;12.904;2023-02-23T00:58:43;97150.63;;;9.11;76.98
72038;BME280;59900;50.788;12.904;2023-02-23T01:01:10;97151.06;;;9.15;77.12
72038;BME280;59900;50.788;12.904;2023-02-23T01:03:36;97150.44;;;9.13;77.33
72038;BME280;59900;50.788;12.904;2023-02-23T01:06:04;97156.47;;;9.07;77.26
72038;BME280;59900;50.788;12.904;2023-02-23T01:08:35;97152.81;;;9.08;77.35
72038;BME280;59900;50.788;12.904;2023-02-23T01:11:08;97160.13;;;9.12;77.41
72038;BME280;59900;50.788;12.904;2023-02-23T01:13:39;97152.03;;;9.14;77.36
72038;BME280;59900;50.788;12.904;2023-02-23T01:16:06;97152.84;;;9.14;77.26
72038;BME280;59900;50.788;12.904;2023-02-23T01:18:32;97147.41;;;9.09;77.44
72038;BME280;59900;50.788;12.904;2023-02-23T01:20:59;97140.34;;;9.10;77.73
72038;BME280;59900;50.788;12.904;2023-02-23T01:23:24;97141.13;;;9.10;77.43
72038;BME280;59900;50.788;12.904;2023-02-23T01:25:49;97140.34;;;9.10;77.58
72038;BME280;59900;50.788;12.904;2023-02-23T01:28:14;97144.78;;;9.09;77.71
72038;BME280;59900;50.788;12.904;2023-02-23T01:30:40;97142.38;;;9.14;77.49
72038;BME280;59900;50.788;12.904;2023-02-23T01:33:05;97132.50;;;9.16;77.40
72038;BME280;59900;50.788;12.904;2023-02-23T01:35:31;97140.34;;;9.16;77.60
72038;BME280;59900;50.788;12.904;2023-02-23T01:37:57;97142.56;;;9.19;77.49
72038;BME280;59900;50.788;12.904;2023-02-23T01:40:24;97134.94;;;9.18;77.24
72038;BME280;59900;50.788;12.904;2023-02-23T01:42:58;97141.16;;;9.17;77.65
72038;BME280;59900;50.788;12.904;2023-02-23T01:45:31;97129.88;;;9.16;77.93
72038;BME280;59900;50.788;12.904;2023-02-23T01:48:02;97130.69;;;9.17;77.82
72038;BME280;59900;50.788;12.904;2023-02-23T01:50:34;97135.09;;;9.16;78.08
72038;BME280;59900;50.788;12.904;2023-02-23T01:53:01;97126.25;;;9.17;77.84
72038;BME280;59900;50.788;12.904;2023-02-23T01:55:27;97117.00;;;9.21;77.60
72038;BME280;59900;50.788;12.904;2023-02-23T01:57:58;97110.94;;;9.21;77.57
72038;BME280;59900;50.788;12.904;2023-02-23T02:00:26;97112.53;;;9.22;77.38
72038;BME280;59900;50.788;12.904;2023-02-23T02:02:52;97107.28;;;9.22;77.74
72038;BME280;59900;50.788;12.904;2023-02-23T02:05:19;97103.66;;;9.16;77.69
72038;BME280;59900;50.788;12.904;2023-02-23T02:07:48;97100.25;;;9.16;77.83
72038;BME280;59900;50.788;12.904;2023-02-23T02:10:14;97099.63;;;9.14;77.86
72038;BME280;59900;50.788;12.904;2023-02-23T02:12:51;97091.97;;;9.12;77.98
72038;BME280;59900;50.788;12.904;2023-02-23T02:15:20;97086.31;;;9.15;78.03
72038;BME280;59900;50.788;12.904;2023-02-23T02:17:56;97090.94;;;9.13;77.80
72038;BME280;59900;50.788;12.904;2023-02-23T02:20:35;97087.13;;;9.09;78.05
72038;BME280;59900;50.788;12.904;2023-02-23T02:25:56;97087.28;;;9.08;78.14
72038;BME280;59900;50.788;12.904;2023-02-23T02:28:39;97086.31;;;9.09;78.32
72038;BME280;59900;50.788;12.904;2023-02-23T02:37:06;97086.47;;;9.00;78.34
72038;BME280;59900;50.788;12.904;2023-02-23T02:39:55;97087.06;;;8.96;78.23
72038;BME280;59900;50.788;12.904;2023-02-23T02:42:59;97094.53;;;8.99;78.66
72038;BME280;59900;50.788;12.904;2023-02-23T02:45:48;97090.31;;;8.98;78.83
72038;BME280;59900;50.788;12.904;2023-02-23T02:48:22;97092.94;;;8.98;78.59
72038;BME280;59900;50.788;12.904;2023-02-23T02:51:00;97099.16;;;8.97;78.40
72038;BME280;59900;50.788;12.904;2023-02-23T02:53:39;97087.44;;;8.93;78.73
72038;BME280;59900;50.788;12.904;2023-02-23T02:56:06;97100.78;;;8.98;78.75
72038;BME280;59900;50.788;12.904;2023-02-23T02:58:32;97096.97;;;9.00;78.62
72038;BME280;59900;50.788;12.904;2023-02-23T03:01:06;97093.94;;;8.97;78.59
72038;BME280;59900;50.788;12.904;2023-02-23T03:03:50;97095.53;;;8.91;78.78
72038;BME280;59900;50.788;12.904;2023-02-23T03:06:38;97089.84;;;8.88;79.11
72038;BME280;59900;50.788;12.904;2023-02-23T03:09:35;97092.91;;;8.91;78.94
72038;BME280;59900;50.788;12.904;2023-02-23T03:12:40;97096.34;;;8.92;78.78
72038;BME280;59900;50.788;12.904;2023-02-23T03:15:54;97096.72;;;8.95;78.90
72038;BME280;59900;50.788;12.904;2023-02-23T03:18:54;97093.53;;;9.00;78.85
72038;BME280;59900;50.788;12.904;2023-02-23T03:22:04;97092.91;;;8.91;78.64
72038;BME280;59900;50.788;12.904;2023-02-23T03:25:02;97092.69;;;8.86;79.12
72038;BME280;59900;50.788;12.904;2023-02-23T03:27:53;97098.31;;;8.90;79.13
72038;BME280;59900;50.788;12.904;2023-02-23T03:31:00;97101.16;;;8.88;79.11
72038;BME280;59900;50.788;12.904;2023-02-23T03:36:38;97103.56;;;8.83;79.04
72038;BME280;59900;50.788;12.904;2023-02-23T03:39:33;97097.91;;;8.80;78.89
72038;BME280;59900;50.788;12.904;2023-02-23T03:42:23;97094.63;;;8.71;79.20
72038;BME280;59900;50.788;12.904;2023-02-23T03:45:12;97091.78;;;8.66;79.57
72038;BME280;59900;50.788;12.904;2023-02-23T03:47:59;97101.00;;;8.56;79.99
72038;BME280;59900;50.788;12.904;2023-02-23T03:50:54;97096.53;;;8.50;80.21
72038;BME280;59900;50.788;12.904;2023-02-23T03:53:45;97095.66;;;8.42;80.91
72038;BME280;59900;50.788;12.904;2023-02-23T03:56:32;97096.91;;;8.47;80.57
72038;BME280;59900;50.788;12.904;2023-02-23T03:59:23;97104.78;;;8.47;80.78
72038;BME280;59900;50.788;12.904;2023-02-23T04:02:09;97106.78;;;8.44;80.71
72038;BME280;59900;50.788;12.904;2023-02-23T04:04:55;97103.13;;;8.39;81.21
72038;BME280;59900;50.788;12.904;2023-02-23T04:07:42;97116.16;;;8.32;81.17
72038;BME280;59900;50.788;12.904;2023-02-23T04:10:29;97106.31;;;8.34;81.26
72038;BME280;59900;50.788;12.904;2023-02-23T04:13:17;97105.09;;;8.37;81.35
72038;BME280;59900;50.788;12.904;2023-02-23T04:15:53;97106.34;;;8.41;81.02
72038;BME280;59900;50.788;12.904;2023-02-23T04:18:31;97108.75;;;8.42;80.83
72038;BME280;59900;50.788;12.904;2023-02-23T04:20:57;97112.19;;;8.43;80.76
72038;BME280;59900;50.788;12.904;2023-02-23T04:23:23;97108.97;;;8.41;80.91
72038;BME280;59900;50.788;12.904;2023-02-23T04:25:50;97117.81;;;8.40;80.87
72038;BME280;59900;50.788;12.904;2023-02-23T04:28:16;97112.97;;;8.37;81.09
72038;BME280;59900;50.788;12.904;2023-02-23T04:30:41;97120.97;;;8.29;80.88
72038;BME280;59900;50.788;12.904;2023-02-23T04:33:07;97116.09;;;8.26;80.89
72038;BME280;59900;50.788;12.904;2023-02-23T04:35:32;97113.25;;;8.21;81.11
72038;BME280;59900;50.788;12.904;2023-02-23T04:37:58;97114.44;;;8.18;81.52
72038;BME280;59900;50.788;12.904;2023-02-23T04:40:23;97116.84;;;8.20;81.29
72038;BME280;59900;50.788;12.904;2023-02-23T04:42:49;97113.78;;;8.16;81.10
72038;BME280;59900;50.788;12.904;2023-02-23T04:45:15;97122.66;;;8.15;81.38
72038;BME280;59900;50.788;12.904;2023-02-23T04:47:40;97122.84;;;8.14;81.61
72038;BME280;59900;50.788;12.904;2023-02-23T04:50:06;97126.47;;;8.13;81.81
72038;BME280;59900;50.788;12.904;2023-02-23T04:52:31;97118.19;;;8.09;81.85
72038;BME280;59900;50.788;12.904;2023-02-23T04:54:57;97115.97;;;8.06;81.50
72038;BME280;59900;50.788;12.904;2023-02-23T04:57:22;97114.72;;;8.02;81.88
72038;BME280;59900;50.788;12.904;2023-02-23T04:59:47;97123.56;;;8.01;82.01
72038;BME280;59900;50.788;12.904;2023-02-23T05:02:12;97122.25;;;7.90;82.89
72038;BME280;59900;50.788;12.904;2023-02-23T05:04:38;97129.50;;;7.88;83.32
72038;BME280;59900;50.788;12.904;2023-02-23T05:07:03;97122.56;;;7.81;83.84
72038;BME280;59900;50.788;12.904;2023-02-23T05:09:29;97125.84;;;7.83;83.75
72038;BME280;59900;50.788;12.904;2023-02-23T05:11:54;97135.16;;;7.92;83.48
72038;BME280;59900;50.788;12.904;2023-02-23T05:14:20;97140.03;;;7.95;83.45
72038;BME280;59900;50.788;12.904;2023-02-23T05:16:45;97132.72;;;7.90;83.49
72038;BME280;59900;50.788;12.904;2023-02-23T05:19:10;97136.59;;;7.95;83.49
72038;BME280;59900;50.788;12.904;2023-02-23T05:21:36;97141.25;;;7.99;83.29
72038;BME280;59900;50.788;12.904;2023-02-23T05:24:02;97143.88;;;7.99;83.02
72038;BME280;59900;50.788;12.904;2023-02-23T05:26:28;97139.50;;;8.06;83.10
72038;BME280;59900;50.788;12.904;2023-02-23T05:28:53;97142.34;;;8.11;82.66
72038;BME280;59900;50.788;12.904;2023-02-23T05:31:21;97139.69;;;8.05;82.96
72038;BME280;59900;50.788;12.904;2023-02-23T05:33:46;97142.94;;;8.07;83.08
72038;BME280;59900;50.788;12.904;2023-02-23T05:36:13;97143.34;;;8.10;82.77
72038;BME280;59900;50.788;12.904;2023-02-23T05:38:40;97143.75;;;8.07;82.65
72038;BME280;59900;50.788;12.904;2023-02-23T05:41:07;97146.53;;;8.06;82.74
72038;BME280;59900;50.788;12.904;2023-02-23T05:43:33;97149.47;;;7.96;82.43
72038;BME280;59900;50.788;12.904;2023-02-23T05:45:58;97153.56;;;7.77;82.68
72038;BME280;59900;50.788;12.904;2023-02-23T05:48:25;97152.69;;;7.70;83.28
72038;BME280;59900;50.788;12.904;2023-02-23T05:50:50;97152.81;;;7.62;83.28
72038;BME280;59900;50.788;12.904;2023-02-23T05:53:15;97152.66;;;7.49;84.38
72038;BME280;59900;50.788;12.904;2023-02-23T05:55:41;97146.28;;;7.37;85.50
72038;BME280;59900;50.788;12.904;2023-02-23T05:58:06;97157.31;;;7.32;86.25
72038;BME280;59900;50.788;12.904;2023-02-23T06:00:32;97152.00;;;7.26;86.62
72038;BME280;59900;50.788;12.904;2023-02-23T06:02:57;97149.03;;;7.29;86.81
72038;BME280;59900;50.788;12.904;2023-02-23T06:05:23;97151.84;;;7.27;86.86
72038;BME280;59900;50.788;12.904;2023-02-23T06:07:48;97152.63;;;7.28;86.96
72038;BME280;59900;50.788;12.904;2023-02-23T06:10:13;97146.63;;;7.27;86.87
72038;BME280;59900;50.788;12.904;2023-02-23T06:12:39;97147.69;;;7.33;86.60
72038;BME280;59900;50.788;12.904;2023-02-23T06:15:04;97145.06;;;7.33;87.11
72038;BME280;59900;50.788;12.904;2023-02-23T06:17:30;97156.22;;;7.42;86.60
72038;BME280;59900;50.788;12.904;2023-02-23T06:19:56;97150.84;;;7.50;86.44
72038;BME280;59900;50.788;12.904;2023-02-23T06:22:22;97151.56;;;7.58;86.12
72038;BME280;59900;50.788;12.904;2023-02-23T06:24:48;97152.06;;;7.68;85.85
72038;BME280;59900;50.788;12.904;2023-02-23T06:27:13;97157.38;;;7.75;85.43
72038;BME280;59900;50.788;12.904;2023-02-23T06:29:38;97163.66;;;7.80;85.20
72038;BME280;59900;50.788;12.904;2023-02-23T06:32:04;97167.94;;;7.88;85.31
72038;BME280;59900;50.788;12.904;2023-02-23T06:34:29;97168.38;;;7.92;85.31
72038;BME280;59900;50.788;12.904;2023-02-23T06:36:55;97163.19;;;7.98;85.16
72038;BME280;59900;50.788;12.904;2023-02-23T06:39:20;97165.25;;;8.03;84.74
72038;BME280;59900;50.788;12.904;2023-02-23T06:41:45;97164.03;;;8.05;84.53
72038;BME280;59900;50.788;12.904;2023-02-23T06:44:11;97166.50;;;8.07;84.36
72038;BME280;59900;50.788;12.904;2023-02-23T06:46:36;97170.72;;;8.08;84.40
72038;BME280;59900;50.788;12.904;2023-02-23T06:49:02;97162.69;;;8.09;84.43
72038;BME280;59900;50.788;12.904;2023-02-23T06:51:27;97171.34;;;8.10;84.23
72038;BME280;59900;50.788;12.904;2023-02-23T06:53:52;97175.19;;;8.14;84.23
72038;BME280;59900;50.788;12.904;2023-02-23T06:56:18;97170.00;;;8.20;84.02
72038;BME280;59900;50.788;12.904;2023-02-23T06:58:43;97174.50;;;8.26;83.94
72038;BME280;59900;50.788;12.904;2023-02-23T07:01:09;97178.56;;;8.29;83.67
72038;BME280;59900;50.788;12.904;2023-02-23T07:03:37;97175.56;;;8.32;83.75
72038;BME280;59900;50.788;12.904;2023-02-23T07:06:02;97179.44;;;8.36;83.48
72038;BME280;59900;50.788;12.904;2023-02-23T07:08:28;97177.84;;;8.41;83.34
72038;BME280;59900;50.788;12.904;2023-02-23T07:10:54;97185.13;;;8.46;83.33
72038;BME280;59900;50.788;12.904;2023-02-23T07:13:20;97178.75;;;8.55;82.80
72038;BME280;59900;50.788;12.904;2023-02-23T07:15:46;97175.56;;;8.60;82.51
72038;BME280;59900;50.788;12.904;2023-02-23T07:18:11;97179.59;;;8.62;82.32
72038;BME280;59900;50.788;12.904;2023-02-23T07:20:36;97180.44;;;8.63;82.16
72038;BME280;59900;50.788;12.904;2023-02-23T07:23:02;97171.75;;;8.62;82.16
72038;BME280;59900;50.788;12.904;2023-02-23T07:25:27;97168.31;;;8.62;81.88
72038;BME280;59900;50.788;12.904;2023-02-23T07:27:53;97173.56;;;8.62;81.88
72038;BME280;59900;50.788;12.904;2023-02-23T07:30:19;97179.41;;;8.64;81.98
72038;BME280;59900;50.788;12.904;2023-02-23T07:32:48;97172.38;;;8.64;82.38
72038;BME280;59900;50.788;12.904;2023-02-23T07:35:13;97170.78;;;8.70;82.31
72038;BME280;59900;50.788;12.904;2023-02-23T07:37:38;97171.81;;;8.75;82.12
72038;BME280;59900;50.788;12.904;2023-02-23T07:40:04;97179.53;;;8.83;81.78
72038;BME280;59900;50.788;12.904;2023-02-23T07:42:29;97178.34;;;8.86;81.66
72038;BME280;59900;50.788;12.904;2023-02-23T07:44:55;97188.22;;;8.90;81.84
72038;BME280;59900;50.788;12.904;2023-02-23T07:47:20;97177.97;;;8.95;81.27
72038;BME280;59900;50.788;12.904;2023-02-23T07:49:46;97183.47;;;9.00;81.39
72038;BME280;59900;50.788;12.904;2023-02-23T07:52:16;97176.19;;;9.02;81.14
72038;BME280;59900;50.788;12.904;2023-02-23T07:54:42;97181.47;;;9.09;80.92
72038;BME280;59900;50.788;12.904;2023-02-23T07:57:07;97180.69;;;9.15;80.87
72038;BME280;59900;50.788;12.904;2023-02-23T07:59:33;97183.31;;;9.22;80.49
72038;BME280;59900;50.788;12.904;2023-02-23T08:01:58;97183.19;;;9.30;80.45
72038;BME280;59900;50.788;12.904;2023-02-23T08:04:23;97183.22;;;9.36;80.18
72038;BME280;59900;50.788;12.904;2023-02-23T08:06:48;97184.00;;;9.37;79.22
72038;BME280;59900;50.788;12.904;2023-02-23T08:09:14;97193.69;;;9.43;79.80
72038;BME280;59900;50.788;12.904;2023-02-23T08:11:39;97190.28;;;9.49;79.67
72038;BME280;59900;50.788;12.904;2023-02-23T08:14:04;97192.72;;;9.57;79.64
72038;BME280;59900;50.788;12.904;2023-02-23T08:16:31;97193.78;;;9.63;79.52
72038;BME280;59900;50.788;12.904;2023-02-23T08:18:57;97189.72;;;9.67;79.52
72038;BME280;59900;50.788;12.904;2023-02-23T08:21:23;97195.59;;;9.69;79.45
72038;BME280;59900;50.788;12.904;2023-02-23T08:23:48;97196.00;;;9.72;79.18
72038;BME280;59900;50.788;12.904;2023-02-23T08:26:14;97198.84;;;9.77;78.67
72038;BME280;59900;50.788;12.904;2023-02-23T08:28:39;97189.78;;;9.80;78.84
72038;BME280;59900;50.788;12.904;2023-02-23T08:31:08;97194.38;;;9.78;78.12
72038;BME280;59900;50.788;12.904;2023-02-23T08:33:34;97198.84;;;9.77;77.97
72038;BME280;59900;50.788;12.904;2023-02-23T08:35:59;97188.53;;;9.76;77.75
72038;BME280;59900;50.788;12.904;2023-02-23T08:38:27;97197.25;;;9.83;77.68
72038;BME280;59900;50.788;12.904;2023-02-23T08:40:52;97190.56;;;9.87;77.61
72038;BME280;59900;50.788;12.904;2023-02-23T08:43:18;97189.78;;;9.93;77.96
72038;BME280;59900;50.788;12.904;2023-02-23T08:45:44;97180.28;;;9.98;77.35
72038;BME280;59900;50.788;12.904;2023-02-23T08:48:09;97194.03;;;10.07;77.58
72038;BME280;59900;50.788;12.904;2023-02-23T08:50:34;97195.88;;;10.13;77.04
72038;BME280;59900;50.788;12.904;2023-02-23T08:53:00;97197.91;;;10.18;77.06
72038;BME280;59900;50.788;12.904;2023-02-23T08:55:25;97197.53;;;10.27;76.80
72038;BME280;59900;50.788;12.904;2023-02-23T08:57:50;97197.31;;;10.29;76.96
72038;BME280;59900;50.788;12.904;2023-02-23T09:00:16;97195.69;;;10.34;76.29
72038;BME280;59900;50.788;12.904;2023-02-23T09:02:42;97190.03;;;10.37;76.28
72038;BME280;59900;50.788;12.904;2023-02-23T09:05:08;97184.97;;;10.49;76.39
72038;BME280;59900;50.788;12.904;2023-02-23T09:07:34;97189.41;;;10.55;76.08
72038;BME280;59900;50.788;12.904;2023-02-23T09:10:01;97199.13;;;10.54;75.82
72038;BME280;59900;50.788;12.904;2023-02-23T09:12:26;97187.59;;;10.55;75.81
72038;BME280;59900;50.788;12.904;2023-02-23T09:14:51;97190.81;;;10.57;75.57
72038;BME280;59900;50.788;12.904;2023-02-23T09:17:18;97195.91;;;10.59;75.69
72038;BME280;59900;50.788;12.904;2023-02-23T09:19:44;97189.81;;;10.58;75.91
72038;BME280;59900;50.788;12.904;2023-02-23T09:22:09;97192.22;;;10.60;76.00
72038;BME280;59900;50.788;12.904;2023-02-23T09:24:34;97193.25;;;10.65;76.06
72038;BME280;59900;50.788;12.904;2023-02-23T09:27:00;97198.50;;;10.72;75.57
72038;BME280;59900;50.788;12.904;2023-02-23T09:29:25;97197.06;;;10.69;76.23
72038;BME280;59900;50.788;12.904;2023-02-23T09:31:50;97188.78;;;10.73;76.15
72038;BME280;59900;50.788;12.904;2023-02-23T09:34:17;97191.41;;;10.73;76.22
72038;BME280;59900;50.788;12.904;2023-02-23T09:36:42;97195.03;;;10.78;76.23
72038;BME280;59900;50.788;12.904;2023-02-23T09:39:07;97190.59;;;10.85;76.00
72038;BME280;59900;50.788;12.904;2023-02-23T09:47:15;97201.44;;;11.15;75.14
72038;BME280;59900;50.788;12.904;2023-02-23T09:49:45;97195.53;;;11.19;74.71
72038;BME280;59900;50.788;12.904;2023-02-23T09:52:19;97190.28;;;11.19;74.88
72038;BME280;59900;50.788;12.904;2023-02-23T09:54:46;97184.00;;;11.20;74.89
72038;BME280;59900;50.788;12.904;2023-02-23T09:57:18;97192.91;;;11.19;74.36
72038;BME280;59900;50.788;12.904;2023-02-23T09:59:45;97189.44;;;11.25;74.88
72038;BME280;59900;50.788;12.904;2023-02-23T10:02:28;97192.25;;;11.31;74.57
72038;BME280;59900;50.788;12.904;2023-02-23T10:05:08;97192.81;;;11.39;74.20
72038;BME280;59900;50.788;12.904;2023-02-23T10:07:44;97193.19;;;11.49;74.13
72038;BME280;59900;50.788;12.904;2023-02-23T10:10:25;97200.09;;;11.44;74.02
72038;BME280;59900;50.788;12.904;2023-02-23T10:15:43;97201.91;;;11.50;74.06
72038;BME280;59900;50.788;12.904;2023-02-23T10:18:17;97197.88;;;11.47;73.85
72038;BME280;59900;50.788;12.904;2023-02-23T10:21:01;97200.28;;;11.49;73.92
72038;BME280;59900;50.788;12.904;2023-02-23T10:23:42;97187.50;;;11.52;73.81
72038;BME280;59900;50.788;12.904;2023-02-23T10:26:15;97197.22;;;11.52;73.84
72038;BME280;59900;50.788;12.904;2023-02-23T10:28:41;97194.19;;;11.55;73.81
72038;BME280;59900;50.788;12.904;2023-02-23T10:31:39;97200.53;;;11.41;74.44
72038;BME280;59900;50.788;12.904;2023-02-23T10:34:12;97185.50;;;11.48;73.95
72038;BME280;59900;50.788;12.904;2023-02-23T10:36:43;97200.88;;;11.51;74.30
72038;BME280;59900;50.788;12.904;2023-02-23T10:39:11;97196.81;;;11.48;74.95
72038;BME280;59900;50.788;12.904;2023-02-23T10:41:37;97191.41;;;11.43;74.61
72038;BME280;59900;50.788;12.904;2023-02-23T10:44:04;97194.19;;;11.48;74.87
72038;BME280;59900;50.788;12.904;2023-02-23T10:46:37;97192.19;;;11.50;74.73
72038;BME280;59900;50.788;12.904;2023-02-23T10:49:05;97193.75;;;11.58;74.67
72038;BME280;59900;50.788;12.904;2023-02-23T10:51:35;97193.91;;;11.63;74.89
72038;BME280;59900;50.788;12.904;2023-02-23T10:54:34;97198.63;;;11.54;74.73
72038;BME280;59900;50.788;12.904;2023-02-23T10:57:00;97201.69;;;11.51;75.06
72038;BME280;59900;50.788;12.904;2023-02-23T10:59:27;97195.59;;;11.51;75.61
72038;BME280;59900;50.788;12.904;2023-02-23T11:01:52;97196.25;;;11.46;75.41
72038;BME280;59900;50.788;12.904;2023-02-23T11:04:22;97190.41;;;11.38;75.34
72038;BME280;59900;50.788;12.904;2023-02-23T11:06:48;97199.94;;;11.32;75.47
72038;BME280;59900;50.788;12.904;2023-02-23T11:09:26;97196.94;;;11.22;75.15
72038;BME280;59900;50.788;12.904;2023-02-23T11:11:58;97187.88;;;11.18;76.09
72038;BME280;59900;50.788;12.904;2023-02-23T11:14:26;97187.25;;;11.16;76.20
72038;BME280;59900;50.788;12.904;2023-02-23T11:16:52;97182.97;;;11.21;76.32
72038;BME280;59900;50.788;12.904;2023-02-23T11:19:33;97182.78;;;11.23;76.31
72038;BME280;59900;50.788;12.904;2023-02-23T11:22:01;97177.69;;;11.35;76.22
72038;BME280;59900;50.788;12.904;2023-02-23T11:24:28;97176.84;;;11.41;76.04
72038;BME280;59900;50.788;12.904;2023-02-23T11:26:59;97170.53;;;11.48;75.99
72038;BME280;59900;50.788;12.904;2023-02-23T11:29:31;97167.81;;;11.61;75.62
72038;BME280;59900;50.788;12.904;2023-02-23T11:32:02;97174.28;;;11.72;75.54
72038;BME280;59900;50.788;12.904;2023-02-23T11:34:34;97168.56;;;11.75;74.72
72038;BME280;59900;50.788;12.904;2023-02-23T11:37:06;97170.44;;;11.68;74.20
72038;BME280;59900;50.788;12.904;2023-02-23T11:39:33;97161.31;;;11.77;74.75
72038;BME280;59900;50.788;12.904;2023-02-23T11:42:18;97159.63;;;11.83;74.66
72038;BME280;59900;50.788;12.904;2023-02-23T11:45:00;97159.41;;;11.84;74.77
72038;BME280;59900;50.788;12.904;2023-02-23T11:47:26;97155.78;;;11.85;74.28
72038;BME280;59900;50.788;12.904;2023-02-23T11:49:53;97152.53;;;11.83;74.01
72038;BME280;59900;50.788;12.904;2023-02-23T11:52:20;97154.56;;;11.81;73.95
72038;BME280;59900;50.788;12.904;2023-02-23T11:54:58;97141.03;;;11.77;74.53
72038;BME280;59900;50.788;12.904;2023-02-23T11:57:27;97141.56;;;11.86;74.64
72038;BME280;59900;50.788;12.904;2023-02-23T11:59:55;97143.97;;;11.94;73.96
72038;BME280;59900;50.788;12.904;2023-02-23T12:02:29;97142.28;;;12.00;73.73
72038;BME280;59900;50.788;12.904;2023-02-23T12:08:05;97142.56;;;12.16;72.72
72038;BME280;59900;50.788;12.904;2023-02-23T12:10:43;97146.31;;;12.02;73.19
72038;BME280;59900;50.788;12.904;2023-02-23T12:13:26;97147.56;;;12.00;73.61
72038;BME280;59900;50.788;12.904;2023-02-23T12:16:04;97145.63;;;11.89;73.68
72038;BME280;59900;50.788;12.904;2023-02-23T12:18:43;97143.63;;;11.84;74.28
72038;BME280;59900;50.788;12.904;2023-02-23T12:21:18;97147.91;;;11.78;74.30
72038;BME280;59900;50.788;12.904;2023-02-23T12:23:47;97139.84;;;11.73;74.89
72038;BME280;59900;50.788;12.904;2023-02-23T12:26:16;97150.97;;;11.75;74.71
72038;BME280;59900;50.788;12.904;2023-02-23T12:28:49;97146.50;;;11.76;74.71
72038;BME280;59900;50.788;12.904;2023-02-23T12:31:52;97138.75;;;11.88;74.62
72038;BME280;59900;50.788;12.904;2023-02-23T12:34:27;97137.47;;;11.97;74.20
72038;BME280;59900;50.788;12.904;2023-02-23T12:37:03;97136.75;;;12.08;73.94
72038;BME280;59900;50.788;12.904;2023-02-23T12:39:39;97132.06;;;12.10;73.73
72038;BME280;59900;50.788;12.904;2023-02-23T12:42:22;97127.03;;;12.08;73.26
72038;BME280;59900;50.788;12.904;2023-02-23T12:44:54;97128.66;;;12.09;73.34
72038;BME280;59900;50.788;12.904;2023-02-23T12:50:12;97118.47;;;12.13;73.14
72038;BME280;59900;50.788;12.904;2023-02-23T12:52:48;97131.22;;;12.16;73.29
72038;BME280;59900;50.788;12.904;2023-02-23T12:55:17;97117.66;;;12.12;73.50
72038;BME280;59900;50.788;12.904;2023-02-23T12:57:57;97116.66;;;12.13;73.29
72038;BME280;59900;50.788;12.904;2023-02-23T13:00:37;97122.88;;;12.19;73.52
72038;BME280;59900;50.788;12.904;2023-02-23T13:03:34;97116.44;;;12.15;73.53
72038;BME280;59900;50.788;12.904;2023-02-23T13:11:45;97107.50;;;12.41;73.43
72038;BME280;59900;50.788;12.904;2023-02-23T13:17:43;97105.16;;;12.69;71.57
72038;BME280;59900;50.788;12.904;2023-02-23T13:20:35;97111.09;;;12.64;71.22
72038;BME280;59900;50.788;12.904;2023-02-23T13:29:08;97114.16;;;12.43;72.27
72038;BME280;59900;50.788;12.904;2023-02-23T13:31:29;97104.09;;;12.33;72.48
72038;BME280;59900;50.788;12.904;2023-02-23T13:33:57;97111.38;;;12.38;72.74
72038;BME280;59900;50.788;12.904;2023-02-23T13:36:25;97107.78;;;12.32;72.31
72038;BME280;59900;50.788;12.904;2023-02-23T13:39:27;97112.28;;;12.25;72.66
72038;BME280;59900;50.788;12.904;2023-02-23T13:42:29;97113.97;;;12.20;72.42
72038;BME280;59900;50.788;12.904;2023-02-23T13:47:48;97107.75;;;12.14;72.55
72038;BME280;59900;50.788;12.904;2023-02-23T13:50:43;97113.22;;;12.13;72.81
72038;BME280;59900;50.788;12.904;2023-02-23T13:54:06;97103.34;;;12.08;72.53
72038;BME280;59900;50.788;12.904;2023-02-23T13:56:39;97112.53;;;11.99;71.93
72038;BME280;59900;50.788;12.904;2023-02-23T13:59:07;97104.03;;;11.97;72.61
72038;BME280;59900;50.788;12.904;2023-02-23T14:01:39;97104.22;;;11.96;72.79
72038;BME280;59900;50.788;12.904;2023-02-23T14:04:33;97099.63;;;11.91;72.67
72038;BME280;59900;50.788;12.904;2023-02-23T14:07:13;97099.63;;;11.91;72.63